sensor_id;sensor_type;location;lat;lon;timestamp;pressure;altitude;pressure_sealevel;temperature;humidity
596;BME280;19946;49.306;11.350;2023-04-22T00:01:15;95910.91;;;10.85;100.00
596;BME280;19946;49.306;11.350;2023-04-22T00:04:16;95916.06;;;10.85;100.00
596;BME280;19946;49.306;11.350;2023-04-22T00:07:17;95911.72;;;10.85;100.00
596;BME280;19946;49.306;11.350;2023-04-22T00:10:17;95910.75;;;10.86;100.00
596;BME280;19946;49.306;11.350;2023-04-22T00:13:18;95904.09;;;10.84;100.00
596;BME280;19946;49.306;11.350;2023-04-22T00:16:18;95884.56;;;10.62;100.00
596;BME280;19946;49.306;11.350;2023-04-22T00:19:18;95878.63;;;10.52;100.00
596;BME280;19946;49.306;11.350;2023-04-22T00:22:19;95880.53;;;10.50;100.00
596;BME280;19946;49.306;11.350;2023-04-22T00:25:19;95878.25;;;10.47;100.00
596;BME280;19946;49.306;11.350;2023-04-22T00:28:19;95896.56;;;10.63;100.00
596;BME280;19946;49.306;11.350;2023-04-22T00:31:20;95876.75;;;10.44;100.00
596;BME280;19946;49.306;11.350;2023-04-22T00:34:20;95862.75;;;10.37;100.00
596;BME280;19946;49.306;11.350;2023-04-22T00:37:22;95873.75;;;10.49;100.00
596;BME280;19946;49.306;11.350;2023-04-22T00:40:22;95880.25;;;10.53;100.00
596;BME280;19946;49.306;11.350;2023-04-22T00:43:23;95882.16;;;10.51;100.00
596;BME280;19946;49.306;11.350;2023-04-22T00:46:23;95895.88;;;10.61;100.00
596;BME280;19946;49.306;11.350;2023-04-22T00:49:26;95892.47;;;10.60;100.00
596;BME280;19946;49.306;11.350;2023-04-22T00:52:26;95874.16;;;10.44;100.00
596;BME280;19946;49.306;11.350;2023-04-22T00:55:27;95900.34;;;10.69;100.00
596;BME280;19946;49.306;11.350;2023-04-22T00:58:28;95876.88;;;10.43;100.00
596;BME280;19946;49.306;11.350;2023-04-22T01:01:29;95889.66;;;10.54;100.00
596;BME280;19946;49.306;11.350;2023-04-22T01:04:29;95898.28;;;10.45;100.00
596;BME280;19946;49.306;11.350;2023-04-22T01:07:30;95868.63;;;10.30;100.00
596;BME280;19946;49.306;11.350;2023-04-22T01:10:32;95898.44;;;10.34;100.00
596;BME280;19946;49.306;11.350;2023-04-22T01:13:32;95896.97;;;10.31;100.00
596;BME280;19946;49.306;11.350;2023-04-22T01:16:34;95890.59;;;10.26;100.00
596;BME280;19946;49.306;11.350;2023-04-22T01:19:38;95894.94;;;10.25;100.00
596;BME280;19946;49.306;11.350;2023-04-22T01:22:41;95893.56;;;10.31;100.00
596;BME280;19946;49.306;11.350;2023-04-22T01:25:43;95888.66;;;10.28;100.00
596;BME280;19946;49.306;11.350;2023-04-22T01:28:44;95882.81;;;10.16;100.00
596;BME280;19946;49.306;11.350;2023-04-22T01:31:45;95892.78;;;10.20;100.00
596;BME280;19946;49.306;11.350;2023-04-22T01:34:45;95860.53;;;9.96;100.00
596;BME280;19946;49.306;11.350;2023-04-22T01:37:46;95894.53;;;10.10;100.00
596;BME280;19946;49.306;11.350;2023-04-22T01:40:46;95861.25;;;9.88;100.00
596;BME280;19946;49.306;11.350;2023-04-22T01:43:47;95886.78;;;10.10;100.00
596;BME280;19946;49.306;11.350;2023-04-22T01:46:47;95887.06;;;10.07;100.00
596;BME280;19946;49.306;11.350;2023-04-22T01:49:47;95839.38;;;9.73;100.00
596;BME280;19946;49.306;11.350;2023-04-22T01:52:47;95882.03;;;9.96;100.00
596;BME280;19946;49.306;11.350;2023-04-22T01:55:48;95879.31;;;9.98;100.00
596;BME280;19946;49.306;11.350;2023-04-22T01:58:49;95851.84;;;9.87;100.00
596;BME280;19946;49.306;11.350;2023-04-22T02:01:49;95873.31;;;9.97;100.00
596;BME280;19946;49.306;11.350;2023-04-22T02:04:49;95856.63;;;9.82;100.00
596;BME280;19946;49.306;11.350;2023-04-22T02:07:53;95880.16;;;9.88;100.00
596;BME280;19946;49.306;11.350;2023-04-22T02:10:53;95890.94;;;9.84;100.00
596;BME280;19946;49.306;11.350;2023-04-22T02:13:54;95883.59;;;9.70;100.00
596;BME280;19946;49.306;11.350;2023-04-22T02:16:54;95871.06;;;9.65;100.00
596;BME280;19946;49.306;11.350;2023-04-22T02:19:54;95893.66;;;9.82;100.00
596;BME280;19946;49.306;11.350;2023-04-22T02:22:56;95894.75;;;9.80;100.00
596;BME280;19946;49.306;11.350;2023-04-22T02:25:56;95895.44;;;9.82;100.00
596;BME280;19946;49.306;11.350;2023-04-22T02:28:56;95889.81;;;9.86;100.00
596;BME280;19946;49.306;11.350;2023-04-22T02:31:58;95892.44;;;9.77;100.00
596;BME280;19946;49.306;11.350;2023-04-22T02:34:59;95892.69;;;9.74;100.00
596;BME280;19946;49.306;11.350;2023-04-22T02:38:01;95895.81;;;9.77;100.00
596;BME280;19946;49.306;11.350;2023-04-22T02:41:01;95884.81;;;9.75;100.00
596;BME280;19946;49.306;11.350;2023-04-22T02:44:02;95871.22;;;9.64;100.00
596;BME280;19946;49.306;11.350;2023-04-22T02:47:02;95849.72;;;9.53;100.00
596;BME280;19946;49.306;11.350;2023-04-22T02:50:03;95896.25;;;9.82;100.00
596;BME280;19946;49.306;11.350;2023-04-22T02:53:03;95844.16;;;9.48;100.00
596;BME280;19946;49.306;11.350;2023-04-22T02:56:04;95878.53;;;9.78;100.00
596;BME280;19946;49.306;11.350;2023-04-22T02:59:04;95875.88;;;9.41;100.00
596;BME280;19946;49.306;11.350;2023-04-22T03:02:05;95909.88;;;9.36;100.00
596;BME280;19946;49.306;11.350;2023-04-22T03:05:28;95919.78;;;9.31;100.00
596;BME280;19946;49.306;11.350;2023-04-22T03:08:29;95911.63;;;9.45;100.00
596;BME280;19946;49.306;11.350;2023-04-22T03:11:29;95896.13;;;9.55;100.00
596;BME280;19946;49.306;11.350;2023-04-22T03:14:30;95902.38;;;9.52;100.00
596;BME280;19946;49.306;11.350;2023-04-22T03:17:30;95900.91;;;9.50;100.00
596;BME280;19946;49.306;11.350;2023-04-22T03:20:33;95918.31;;;9.38;100.00
596;BME280;19946;49.306;11.350;2023-04-22T03:23:34;95915.72;;;8.69;100.00
596;BME280;19946;49.306;11.350;2023-04-22T03:26:34;95919.88;;;8.51;100.00
596;BME280;19946;49.306;11.350;2023-04-22T03:29:34;95893.19;;;8.31;100.00
596;BME280;19946;49.306;11.350;2023-04-22T03:32:35;95886.25;;;8.32;100.00
596;BME280;19946;49.306;11.350;2023-04-22T03:35:48;95907.19;;;8.38;100.00
596;BME280;19946;49.306;11.350;2023-04-22T03:38:49;95880.16;;;8.12;100.00
596;BME280;19946;49.306;11.350;2023-04-22T03:41:50;95881.97;;;8.21;100.00
596;BME280;19946;49.306;11.350;2023-04-22T03:44:51;95910.84;;;8.36;100.00
596;BME280;19946;49.306;11.350;2023-04-22T03:47:55;95904.47;;;8.40;100.00
596;BME280;19946;49.306;11.350;2023-04-22T03:51:03;95903.84;;;8.27;100.00
596;BME280;19946;49.306;11.350;2023-04-22T03:54:08;95915.59;;;8.10;100.00
596;BME280;19946;49.306;11.350;2023-04-22T03:57:12;95880.16;;;8.12;100.00
596;BME280;19946;49.306;11.350;2023-04-22T04:00:13;95900.75;;;8.54;100.00
596;BME280;19946;49.306;11.350;2023-04-22T04:03:23;95869.72;;;8.44;100.00
596;BME280;19946;49.306;11.350;2023-04-22T04:06:26;95891.00;;;8.76;100.00
596;BME280;19946;49.306;11.350;2023-04-22T04:09:27;95884.50;;;8.72;100.00
596;BME280;19946;49.306;11.350;2023-04-22T04:12:27;95872.66;;;8.70;100.00
596;BME280;19946;49.306;11.350;2023-04-22T04:15:27;95891.69;;;8.78;100.00
596;BME280;19946;49.306;11.350;2023-04-22T04:18:29;95906.56;;;8.96;100.00
596;BME280;19946;49.306;11.350;2023-04-22T04:21:30;95880.84;;;8.75;100.00
596;BME280;19946;49.306;11.350;2023-04-22T04:24:32;95894.28;;;8.88;100.00
596;BME280;19946;49.306;11.350;2023-04-22T04:27:40;95912.09;;;8.91;100.00
596;BME280;19946;49.306;11.350;2023-04-22T04:30:43;95876.06;;;8.70;100.00
596;BME280;19946;49.306;11.350;2023-04-22T04:33:43;95905.28;;;8.81;100.00
596;BME280;19946;49.306;11.350;2023-04-22T04:36:44;95899.19;;;8.91;100.00
596;BME280;19946;49.306;11.350;2023-04-22T04:39:52;95898.13;;;8.94;100.00
596;BME280;19946;49.306;11.350;2023-04-22T04:42:56;95871.38;;;9.14;100.00
596;BME280;19946;49.306;11.350;2023-04-22T04:46:01;95904.41;;;9.20;100.00
596;BME280;19946;49.306;11.350;2023-04-22T04:49:06;95887.00;;;9.03;100.00
596;BME280;19946;49.306;11.350;2023-04-22T04:52:20;95895.56;;;9.13;100.00
596;BME280;19946;49.306;11.350;2023-04-22T04:55:20;95874.06;;;8.93;100.00
596;BME280;19946;49.306;11.350;2023-04-22T04:58:21;95901.00;;;9.10;100.00
596;BME280;19946;49.306;11.350;2023-04-22T05:01:30;95885.47;;;9.00;100.00
596;BME280;19946;49.306;11.350;2023-04-22T05:04:36;95909.28;;;9.13;100.00
596;BME280;19946;49.306;11.350;2023-04-22T05:07:36;95892.41;;;9.09;100.00
596;BME280;19946;49.306;11.350;2023-04-22T05:10:38;95871.63;;;9.01;100.00
596;BME280;19946;49.306;11.350;2023-04-22T05:13:39;95878.97;;;9.06;100.00
596;BME280;19946;49.306;11.350;2023-04-22T05:16:42;95888.63;;;9.13;100.00
596;BME280;19946;49.306;11.350;2023-04-22T05:19:44;95910.13;;;9.33;100.00
596;BME280;19946;49.306;11.350;2023-04-22T05:22:45;95877.63;;;9.11;100.00
596;BME280;19946;49.306;11.350;2023-04-22T05:25:48;95905.22;;;9.30;100.00
596;BME280;19946;49.306;11.350;2023-04-22T05:28:49;95863.88;;;9.11;100.00
596;BME280;19946;49.306;11.350;2023-04-22T05:31:51;95899.53;;;9.36;100.00
596;BME280;19946;49.306;11.350;2023-04-22T05:34:51;95913.53;;;9.63;100.00
596;BME280;19946;49.306;11.350;2023-04-22T05:37:52;95915.97;;;9.74;100.00
596;BME280;19946;49.306;11.350;2023-04-22T05:40:52;95918.53;;;9.74;100.00
596;BME280;19946;49.306;11.350;2023-04-22T05:43:54;95901.56;;;9.71;100.00
596;BME280;19946;49.306;11.350;2023-04-22T05:46:54;95917.44;;;9.96;100.00
596;BME280;19946;49.306;11.350;2023-04-22T05:49:57;95922.88;;;10.02;100.00
596;BME280;19946;49.306;11.350;2023-04-22T05:53:23;95930.22;;;10.07;100.00
596;BME280;19946;49.306;11.350;2023-04-22T05:56:24;95928.59;;;10.15;100.00
596;BME280;19946;49.306;11.350;2023-04-22T05:59:24;95934.97;;;10.21;100.00
596;BME280;19946;49.306;11.350;2023-04-22T06:02:25;95899.03;;;10.18;100.00
596;BME280;19946;49.306;11.350;2023-04-22T06:05:26;95902.41;;;10.28;100.00
596;BME280;19946;49.306;11.350;2023-04-22T06:08:29;95934.63;;;10.53;100.00
596;BME280;19946;49.306;11.350;2023-04-22T06:11:30;95924.25;;;10.53;100.00
596;BME280;19946;49.306;11.350;2023-04-22T06:14:31;95902.53;;;10.36;100.00
596;BME280;19946;49.306;11.350;2023-04-22T06:17:31;95903.44;;;10.45;100.00
596;BME280;19946;49.306;11.350;2023-04-22T06:20:32;95909.13;;;10.58;100.00
596;BME280;19946;49.306;11.350;2023-04-22T06:23:32;95911.84;;;10.56;100.00
596;BME280;19946;49.306;11.350;2023-04-22T06:26:33;95918.91;;;10.64;100.00
596;BME280;19946;49.306;11.350;2023-04-22T06:29:33;95940.59;;;10.90;100.00
596;BME280;19946;49.306;11.350;2023-04-22T06:32:34;95935.66;;;10.97;100.00
596;BME280;19946;49.306;11.350;2023-04-22T06:35:34;95932.63;;;11.02;100.00
596;BME280;19946;49.306;11.350;2023-04-22T06:38:34;95921.81;;;11.06;100.00
596;BME280;19946;49.306;11.350;2023-04-22T06:41:55;95919.09;;;11.08;100.00
596;BME280;19946;49.306;11.350;2023-04-22T06:45:21;95930.28;;;11.26;100.00
596;BME280;19946;49.306;11.350;2023-04-22T06:48:45;95932.50;;;11.21;100.00
596;BME280;19946;49.306;11.350;2023-04-22T06:52:05;95929.72;;;11.32;100.00
596;BME280;19946;49.306;11.350;2023-04-22T06:55:07;95919.91;;;11.26;100.00
596;BME280;19946;49.306;11.350;2023-04-22T06:58:08;95885.69;;;11.05;100.00
596;BME280;19946;49.306;11.350;2023-04-22T07:01:08;95908.38;;;11.38;100.00
596;BME280;19946;49.306;11.350;2023-04-22T07:04:10;95895.78;;;11.43;100.00
596;BME280;19946;49.306;11.350;2023-04-22T07:07:11;95934.75;;;11.69;100.00
596;BME280;19946;49.306;11.350;2023-04-22T07:10:11;95926.84;;;11.88;100.00
596;BME280;19946;49.306;11.350;2023-04-22T07:13:20;95919.41;;;12.11;100.00
596;BME280;19946;49.306;11.350;2023-04-22T07:16:20;95929.56;;;12.30;100.00
596;BME280;19946;49.306;11.350;2023-04-22T07:19:20;95884.66;;;12.12;100.00
596;BME280;19946;49.306;11.350;2023-04-22T07:22:21;95916.19;;;12.43;99.18
596;BME280;19946;49.306;11.350;2023-04-22T07:25:21;95913.19;;;12.64;100.00
596;BME280;19946;49.306;11.350;2023-04-22T07:28:21;95861.53;;;12.53;100.00
596;BME280;19946;49.306;11.350;2023-04-22T07:31:22;95868.28;;;12.88;100.00
596;BME280;19946;49.306;11.350;2023-04-22T07:34:22;95905.88;;;13.09;100.00
596;BME280;19946;49.306;11.350;2023-04-22T07:37:22;95898.00;;;13.19;93.58
596;BME280;19946;49.306;11.350;2023-04-22T07:40:23;95864.78;;;13.13;90.49
596;BME280;19946;49.306;11.350;2023-04-22T07:43:23;95886.94;;;13.25;93.37
596;BME280;19946;49.306;11.350;2023-04-22T07:46:23;95898.81;;;13.28;87.96
596;BME280;19946;49.306;11.350;2023-04-22T07:49:24;95901.78;;;13.41;92.64
596;BME280;19946;49.306;11.350;2023-04-22T07:52:24;95898.84;;;13.52;83.09
596;BME280;19946;49.306;11.350;2023-04-22T07:55:26;95888.31;;;13.70;100.00
596;BME280;19946;49.306;11.350;2023-04-22T07:58:26;95879.50;;;13.79;81.48
596;BME280;19946;49.306;11.350;2023-04-22T08:01:27;95856.91;;;13.79;81.95
596;BME280;19946;49.306;11.350;2023-04-22T08:04:27;95883.06;;;14.10;81.63
596;BME280;19946;49.306;11.350;2023-04-22T08:07:27;95899.78;;;14.48;77.77
596;BME280;19946;49.306;11.350;2023-04-22T08:10:27;95908.13;;;14.91;79.29
596;BME280;19946;49.306;11.350;2023-04-22T08:13:28;95894.97;;;15.07;78.74
596;BME280;19946;49.306;11.350;2023-04-22T08:16:28;95889.97;;;14.97;72.21
596;BME280;19946;49.306;11.350;2023-04-22T08:19:28;95901.69;;;15.63;66.69
596;BME280;19946;49.306;11.350;2023-04-22T08:22:29;95842.38;;;15.49;67.12
596;BME280;19946;49.306;11.350;2023-04-22T08:25:31;95855.41;;;15.95;66.41
596;BME280;19946;49.306;11.350;2023-04-22T08:28:31;95880.88;;;16.30;65.55
596;BME280;19946;49.306;11.350;2023-04-22T08:31:33;95888.38;;;16.77;61.27
596;BME280;19946;49.306;11.350;2023-04-22T08:34:33;95889.22;;;17.29;61.10
596;BME280;19946;49.306;11.350;2023-04-22T08:37:34;95895.41;;;17.64;59.17
596;BME280;19946;49.306;11.350;2023-04-22T08:40:34;95853.41;;;17.50;59.19
596;BME280;19946;49.306;11.350;2023-04-22T08:43:36;95861.84;;;17.52;58.63
596;BME280;19946;49.306;11.350;2023-04-22T08:46:37;95857.59;;;17.66;60.59
596;BME280;19946;49.306;11.350;2023-04-22T08:49:38;95881.78;;;17.32;59.54
596;BME280;19946;49.306;11.350;2023-04-22T08:52:43;95868.34;;;17.99;60.19
596;BME280;19946;49.306;11.350;2023-04-22T08:55:43;95874.59;;;18.26;55.13
596;BME280;19946;49.306;11.350;2023-04-22T08:58:44;95887.88;;;17.75;56.37
596;BME280;19946;49.306;11.350;2023-04-22T09:01:49;95899.09;;;17.33;57.87
596;BME280;19946;49.306;11.350;2023-04-22T09:04:51;95855.53;;;17.04;63.31
596;BME280;19946;49.306;11.350;2023-04-22T09:07:55;95837.78;;;17.21;60.45
596;BME280;19946;49.306;11.350;2023-04-22T09:10:58;95875.56;;;17.97;61.70
596;BME280;19946;49.306;11.350;2023-04-22T09:13:58;95863.34;;;18.32;59.46
596;BME280;19946;49.306;11.350;2023-04-22T09:16:59;95877.81;;;18.28;59.58
596;BME280;19946;49.306;11.350;2023-04-22T09:20:03;95872.09;;;18.46;58.73
596;BME280;19946;49.306;11.350;2023-04-22T09:23:06;95855.75;;;18.44;62.64
596;BME280;19946;49.306;11.350;2023-04-22T09:26:07;95870.59;;;18.99;57.82
596;BME280;19946;49.306;11.350;2023-04-22T09:29:12;95862.16;;;19.17;57.54
596;BME280;19946;49.306;11.350;2023-04-22T09:32:16;95863.16;;;19.90;58.19
596;BME280;19946;49.306;11.350;2023-04-22T09:35:22;95861.91;;;19.73;52.51
596;BME280;19946;49.306;11.350;2023-04-22T09:38:22;95833.94;;;19.32;53.52
596;BME280;19946;49.306;11.350;2023-04-22T09:41:33;95852.50;;;19.24;56.83
596;BME280;19946;49.306;11.350;2023-04-22T09:44:34;95851.41;;;19.66;54.13
596;BME280;19946;49.306;11.350;2023-04-22T09:47:35;95803.31;;;18.78;56.48
596;BME280;19946;49.306;11.350;2023-04-22T09:50:37;95841.59;;;19.14;55.18
596;BME280;19946;49.306;11.350;2023-04-22T09:53:37;95856.66;;;19.86;53.63
596;BME280;19946;49.306;11.350;2023-04-22T09:59:41;95833.13;;;19.25;53.02
596;BME280;19946;49.306;11.350;2023-04-22T10:02:42;95829.47;;;19.19;52.37
596;BME280;19946;49.306;11.350;2023-04-22T10:05:43;95842.72;;;18.91;52.89
596;BME280;19946;49.306;11.350;2023-04-22T10:08:45;95813.69;;;17.96;55.95
596;BME280;19946;49.306;11.350;2023-04-22T10:11:46;95846.59;;;18.27;54.19
596;BME280;19946;49.306;11.350;2023-04-22T10:14:48;95838.75;;;18.33;54.56
596;BME280;19946;49.306;11.350;2023-04-22T10:17:51;95845.78;;;18.60;55.84
596;BME280;19946;49.306;11.350;2023-04-22T10:20:53;95817.53;;;19.17;52.61
596;BME280;19946;49.306;11.350;2023-04-22T10:23:57;95812.72;;;19.27;51.10
596;BME280;19946;49.306;11.350;2023-04-22T10:26:59;95826.69;;;19.41;50.91
596;BME280;19946;49.306;11.350;2023-04-22T10:30:02;95812.00;;;19.86;52.75
596;BME280;19946;49.306;11.350;2023-04-22T10:36:21;95810.72;;;19.29;51.56
596;BME280;19946;49.306;11.350;2023-04-22T10:39:23;95840.69;;;18.93;52.04
596;BME280;19946;49.306;11.350;2023-04-22T10:42:27;95809.84;;;19.09;48.56
596;BME280;19946;49.306;11.350;2023-04-22T10:45:31;95835.03;;;19.57;52.17
596;BME280;19946;49.306;11.350;2023-04-22T10:48:47;95783.47;;;19.43;48.18
596;BME280;19946;49.306;11.350;2023-04-22T10:57:49;95818.81;;;19.47;50.96
596;BME280;19946;49.306;11.350;2023-04-22T11:00:53;95806.09;;;19.44;50.67
596;BME280;19946;49.306;11.350;2023-04-22T11:04:18;95814.88;;;19.04;51.55
596;BME280;19946;49.306;11.350;2023-04-22T11:13:40;95817.78;;;18.68;51.33
596;BME280;19946;49.306;11.350;2023-04-22T11:16:45;95811.34;;;18.36;53.16
596;BME280;19946;49.306;11.350;2023-04-22T11:19:46;95810.69;;;18.27;53.43
596;BME280;19946;49.306;11.350;2023-04-22T11:22:50;95809.72;;;18.35;53.96
596;BME280;19946;49.306;11.350;2023-04-22T11:25:59;95820.94;;;18.56;53.17
596;BME280;19946;49.306;11.350;2023-04-22T11:29:00;95780.53;;;18.38;53.30
596;BME280;19946;49.306;11.350;2023-04-22T11:32:02;95767.06;;;18.54;51.17
596;BME280;19946;49.306;11.350;2023-04-22T11:35:03;95781.09;;;19.61;50.49
596;BME280;19946;49.306;11.350;2023-04-22T11:38:05;95806.03;;;20.63;49.22
596;BME280;19946;49.306;11.350;2023-04-22T11:41:05;95804.66;;;20.54;50.84
596;BME280;19946;49.306;11.350;2023-04-22T11:44:06;95799.38;;;20.98;53.28
596;BME280;19946;49.306;11.350;2023-04-22T11:47:06;95797.97;;;21.40;47.03
596;BME280;19946;49.306;11.350;2023-04-22T11:50:09;95794.31;;;21.03;49.42
596;BME280;19946;49.306;11.350;2023-04-22T11:53:20;95773.09;;;20.54;49.23
596;BME280;19946;49.306;11.350;2023-04-22T11:56:23;95772.72;;;20.37;49.93
596;BME280;19946;49.306;11.350;2023-04-22T11:59:23;95792.94;;;20.36;49.19
596;BME280;19946;49.306;11.350;2023-04-22T12:02:24;95777.75;;;20.45;50.02
596;BME280;19946;49.306;11.350;2023-04-22T12:05:34;95796.59;;;20.35;50.08
596;BME280;19946;49.306;11.350;2023-04-22T12:08:36;95759.13;;;20.33;51.71
596;BME280;19946;49.306;11.350;2023-04-22T12:11:45;95778.41;;;20.01;50.65
596;BME280;19946;49.306;11.350;2023-04-22T12:14:46;95776.81;;;19.93;51.12
596;BME280;19946;49.306;11.350;2023-04-22T12:17:50;95786.34;;;19.88;47.20
596;BME280;19946;49.306;11.350;2023-04-22T12:20:51;95777.44;;;19.89;46.95
596;BME280;19946;49.306;11.350;2023-04-22T12:23:59;95759.66;;;19.71;49.36
596;BME280;19946;49.306;11.350;2023-04-22T12:26:59;95771.50;;;20.39;47.78
596;BME280;19946;49.306;11.350;2023-04-22T12:30:00;95743.38;;;20.40;45.34
596;BME280;19946;49.306;11.350;2023-04-22T12:33:01;95746.19;;;20.52;44.70
596;BME280;19946;49.306;11.350;2023-04-22T12:36:03;95764.78;;;20.50;47.47
596;BME280;19946;49.306;11.350;2023-04-22T12:39:04;95755.69;;;20.97;45.41
596;BME280;19946;49.306;11.350;2023-04-22T12:42:05;95734.75;;;20.71;46.61
596;BME280;19946;49.306;11.350;2023-04-22T12:45:06;95753.25;;;20.96;44.79
596;BME280;19946;49.306;11.350;2023-04-22T12:48:08;95760.81;;;20.86;44.62
596;BME280;19946;49.306;11.350;2023-04-22T12:51:08;95737.72;;;20.36;44.20
596;BME280;19946;49.306;11.350;2023-04-22T12:54:08;95759.44;;;19.92;45.23
596;BME280;19946;49.306;11.350;2023-04-22T12:57:09;95764.91;;;19.71;44.65
596;BME280;19946;49.306;11.350;2023-04-22T13:00:11;95751.59;;;19.73;46.92
596;BME280;19946;49.306;11.350;2023-04-22T13:03:14;95755.53;;;20.28;44.90
596;BME280;19946;49.306;11.350;2023-04-22T13:06:14;95732.94;;;20.71;43.73
596;BME280;19946;49.306;11.350;2023-04-22T13:09:15;95732.88;;;20.78;42.14
596;BME280;19946;49.306;11.350;2023-04-22T13:12:15;95748.44;;;21.24;40.92
596;BME280;19946;49.306;11.350;2023-04-22T13:15:15;95734.00;;;20.64;44.27
596;BME280;19946;49.306;11.350;2023-04-22T13:18:18;95742.59;;;21.16;41.24
596;BME280;19946;49.306;11.350;2023-04-22T13:21:18;95733.72;;;21.10;40.61
596;BME280;19946;49.306;11.350;2023-04-22T13:24:19;95744.63;;;20.82;42.06
596;BME280;19946;49.306;11.350;2023-04-22T13:27:19;95730.19;;;20.53;44.02
596;BME280;19946;49.306;11.350;2023-04-22T13:30:20;95725.97;;;20.46;42.95
596;BME280;19946;49.306;11.350;2023-04-22T13:33:20;95721.88;;;20.56;42.27
596;BME280;19946;49.306;11.350;2023-04-22T13:36:20;95704.00;;;20.14;42.20
596;BME280;19946;49.306;11.350;2023-04-22T13:39:21;95706.78;;;20.25;45.54
596;BME280;19946;49.306;11.350;2023-04-22T13:42:22;95701.31;;;20.78;44.74
596;BME280;19946;49.306;11.350;2023-04-22T13:45:23;95721.69;;;21.27;45.54
596;BME280;19946;49.306;11.350;2023-04-22T13:48:24;95681.66;;;20.87;43.15
596;BME280;19946;49.306;11.350;2023-04-22T13:51:26;95676.94;;;20.96;43.06
596;BME280;19946;49.306;11.350;2023-04-22T13:54:26;95681.53;;;20.75;45.99
596;BME280;19946;49.306;11.350;2023-04-22T13:57:27;95687.81;;;20.68;43.04
596;BME280;19946;49.306;11.350;2023-04-22T14:00:27;95668.72;;;20.79;44.46
596;BME280;19946;49.306;11.350;2023-04-22T14:03:27;95683.81;;;20.97;43.97
596;BME280;19946;49.306;11.350;2023-04-22T14:06:30;95658.13;;;20.92;45.44
596;BME280;19946;49.306;11.350;2023-04-22T14:09:30;95675.81;;;21.41;43.50
596;BME280;19946;49.306;11.350;2023-04-22T14:12:30;95670.88;;;21.70;42.76
596;BME280;19946;49.306;11.350;2023-04-22T14:15:31;95676.69;;;21.54;41.60
596;BME280;19946;49.306;11.350;2023-04-22T14:18:31;95671.19;;;21.05;41.51
596;BME280;19946;49.306;11.350;2023-04-22T14:21:35;95681.66;;;21.19;43.10
596;BME280;19946;49.306;11.350;2023-04-22T14:24:36;95676.69;;;21.54;40.61
596;BME280;19946;49.306;11.350;2023-04-22T14:27:37;95640.84;;;20.71;42.26
596;BME280;19946;49.306;11.350;2023-04-22T14:30:38;95644.28;;;20.72;43.16
596;BME280;19946;49.306;11.350;2023-04-22T14:33:38;95682.88;;;21.16;41.68
596;BME280;19946;49.306;11.350;2023-04-22T14:36:38;95677.94;;;21.26;42.41
596;BME280;19946;49.306;11.350;2023-04-22T14:39:39;95660.56;;;21.43;43.02
596;BME280;19946;49.306;11.350;2023-04-22T14:42:39;95675.44;;;21.06;41.86
596;BME280;19946;49.306;11.350;2023-04-22T14:45:40;95659.25;;;20.40;42.75
596;BME280;19946;49.306;11.350;2023-04-22T14:48:40;95663.84;;;20.83;42.11
596;BME280;19946;49.306;11.350;2023-04-22T14:51:40;95676.41;;;21.12;45.67
596;BME280;19946;49.306;11.350;2023-04-22T14:54:41;95637.88;;;20.93;42.63
596;BME280;19946;49.306;11.350;2023-04-22T14:57:42;95650.56;;;21.02;44.16
596;BME280;19946;49.306;11.350;2023-04-22T15:00:42;95654.19;;;21.08;43.40
596;BME280;19946;49.306;11.350;2023-04-22T15:03:42;95672.72;;;20.88;41.94
596;BME280;19946;49.306;11.350;2023-04-22T15:06:43;95644.47;;;20.39;43.72
596;BME280;19946;49.306;11.350;2023-04-22T15:09:44;95654.47;;;20.17;44.00
596;BME280;19946;49.306;11.350;2023-04-22T15:12:44;95641.47;;;20.29;44.19
596;BME280;19946;49.306;11.350;2023-04-22T15:15:44;95615.06;;;20.11;42.04
596;BME280;19946;49.306;11.350;2023-04-22T15:18:45;95617.75;;;19.97;42.43
596;BME280;19946;49.306;11.350;2023-04-22T15:21:45;95657.22;;;20.35;43.92
596;BME280;19946;49.306;11.350;2023-04-22T15:24:46;95665.28;;;20.34;44.29
596;BME280;19946;49.306;11.350;2023-04-22T15:27:46;95638.16;;;19.95;43.93
596;BME280;19946;49.306;11.350;2023-04-22T15:30:47;95652.56;;;20.37;43.96
596;BME280;19946;49.306;11.350;2023-04-22T15:33:49;95622.16;;;20.10;44.46
596;BME280;19946;49.306;11.350;2023-04-22T15:36:49;95644.34;;;20.21;44.00
596;BME280;19946;49.306;11.350;2023-04-22T15:39:49;95628.63;;;20.01;42.56
596;BME280;19946;49.306;11.350;2023-04-22T15:42:50;95649.81;;;20.13;43.00
596;BME280;19946;49.306;11.350;2023-04-22T15:45:50;95636.50;;;20.08;40.31
596;BME280;19946;49.306;11.350;2023-04-22T15:48:50;95651.06;;;20.03;40.44
596;BME280;19946;49.306;11.350;2023-04-22T15:51:51;95663.63;;;19.95;41.67
596;BME280;19946;49.306;11.350;2023-04-22T15:54:52;95642.03;;;19.86;40.79
596;BME280;19946;49.306;11.350;2023-04-22T15:57:52;95642.84;;;19.87;40.48
596;BME280;19946;49.306;11.350;2023-04-22T16:00:53;95610.00;;;19.45;41.46
596;BME280;19946;49.306;11.350;2023-04-22T16:03:53;95646.91;;;19.69;42.62
596;BME280;19946;49.306;11.350;2023-04-22T16:06:53;95654.41;;;19.59;41.24
596;BME280;19946;49.306;11.350;2023-04-22T16:09:56;95638.28;;;19.49;42.76
596;BME280;19946;49.306;11.350;2023-04-22T16:12:56;95653.81;;;19.51;40.27
596;BME280;19946;49.306;11.350;2023-04-22T16:15:57;95656.00;;;19.47;40.56
596;BME280;19946;49.306;11.350;2023-04-22T16:18:57;95657.06;;;19.33;41.82
596;BME280;19946;49.306;11.350;2023-04-22T16:21:58;95636.28;;;19.12;43.90
596;BME280;19946;49.306;11.350;2023-04-22T16:24:59;95635.66;;;19.10;43.31
596;BME280;19946;49.306;11.350;2023-04-22T16:27:59;95651.81;;;19.20;43.65
596;BME280;19946;49.306;11.350;2023-04-22T16:30:59;95612.44;;;18.93;44.18